Terminal Aerodrome Forecast
Issued by NWS

Home | Current Version | Previous Version | Text Only | Print | Product List | Glossary On
Versions: 1 2 3 4 5 6 7 8 9 10 11 12 13 14 15 16 17 18 19 20 21 22 23 24 25 26 27
000
FTUS45 KPIH 270546 AAA
TAFSUN
TAF AMD
KSUN 270546Z 2706/2806 32005KT 6SM -SN SCT015 OVC050
      TEMPO 2706/2708 BKN015
     FM270900 32007KT P6SM VCSH OVC035
     FM272000 23012KT P6SM VCSH SCT015 BKN150
     FM280300 30007KT P6SM SCT030 BKN100
      AMD LTD TO CLD VIS AND WIND TIL 271400=

USA.gov is the U.S. government's official web portal to all federal, state and local government web resources and services.